sensor_id;sensor_type;location;lat;lon;timestamp;pressure;altitude;pressure_sealevel;temperature
68588;BMP180;55560;52.174;20.996;2024-03-08T00:00:14;101384.40;;;1.20
68588;BMP180;55560;52.174;20.996;2024-03-08T00:03:04;101383.20;;;1.20
68588;BMP180;55560;52.174;20.996;2024-03-08T00:05:32;101380.40;;;1.20
68588;BMP180;55560;52.174;20.996;2024-03-08T00:08:00;101378.60;;;1.28
68588;BMP180;55560;52.174;20.996;2024-03-08T00:10:28;101382.40;;;1.30
68588;BMP180;55560;52.174;20.996;2024-03-08T00:12:56;101381.40;;;1.30
68588;BMP180;55560;52.174;20.996;2024-03-08T00:15:25;101375.80;;;1.30
68588;BMP180;55560;52.174;20.996;2024-03-08T00:17:53;101378.60;;;1.30
68588;BMP180;55560;52.174;20.996;2024-03-08T00:20:21;101374.00;;;1.30
68588;BMP180;55560;52.174;20.996;2024-03-08T00:22:49;101382.40;;;1.30
68588;BMP180;55560;52.174;20.996;2024-03-08T00:25:17;101374.60;;;1.30
68588;BMP180;55560;52.174;20.996;2024-03-08T00:27:46;101375.60;;;1.30
68588;BMP180;55560;52.174;20.996;2024-03-08T00:30:18;101371.60;;;1.30
68588;BMP180;55560;52.174;20.996;2024-03-08T00:32:45;101370.20;;;1.30
68588;BMP180;55560;52.174;20.996;2024-03-08T00:35:13;101371.00;;;1.30
68588;BMP180;55560;52.174;20.996;2024-03-08T00:37:41;101373.00;;;1.30
68588;BMP180;55560;52.174;20.996;2024-03-08T00:40:10;101371.60;;;1.30
68588;BMP180;55560;52.174;20.996;2024-03-08T00:42:38;101373.00;;;1.30
68588;BMP180;55560;52.174;20.996;2024-03-08T00:45:08;101366.40;;;1.30
68588;BMP180;55560;52.174;20.996;2024-03-08T00:47:38;101367.60;;;1.30
68588;BMP180;55560;52.174;20.996;2024-03-08T00:50:07;101372.80;;;1.30
68588;BMP180;55560;52.174;20.996;2024-03-08T00:52:39;101369.20;;;1.30
68588;BMP180;55560;52.174;20.996;2024-03-08T00:55:07;101370.20;;;1.30
68588;BMP180;55560;52.174;20.996;2024-03-08T00:57:38;101364.80;;;1.30
68588;BMP180;55560;52.174;20.996;2024-03-08T01:00:06;101360.80;;;1.30
68588;BMP180;55560;52.174;20.996;2024-03-08T01:02:38;101357.60;;;1.30
68588;BMP180;55560;52.174;20.996;2024-03-08T01:05:07;101357.80;;;1.30
68588;BMP180;55560;52.174;20.996;2024-03-08T01:07:35;101361.00;;;1.30
68588;BMP180;55560;52.174;20.996;2024-03-08T01:10:04;101363.20;;;1.30
68588;BMP180;55560;52.174;20.996;2024-03-08T01:12:32;101355.60;;;1.30
68588;BMP180;55560;52.174;20.996;2024-03-08T01:15:00;101362.20;;;1.30
68588;BMP180;55560;52.174;20.996;2024-03-08T01:17:29;101358.40;;;1.30
68588;BMP180;55560;52.174;20.996;2024-03-08T01:19:57;101356.60;;;1.30
68588;BMP180;55560;52.174;20.996;2024-03-08T01:22:26;101355.00;;;1.30
68588;BMP180;55560;52.174;20.996;2024-03-08T01:24:56;101353.40;;;1.30
68588;BMP180;55560;52.174;20.996;2024-03-08T01:27:24;101353.80;;;1.30
68588;BMP180;55560;52.174;20.996;2024-03-08T01:29:54;101345.80;;;1.22
68588;BMP180;55560;52.174;20.996;2024-03-08T01:32:22;101347.20;;;1.24
68588;BMP180;55560;52.174;20.996;2024-03-08T01:34:51;101345.20;;;1.20
68588;BMP180;55560;52.174;20.996;2024-03-08T01:37:18;101344.60;;;1.20
68588;BMP180;55560;52.174;20.996;2024-03-08T01:39:47;101349.80;;;1.10
68588;BMP180;55560;52.174;20.996;2024-03-08T01:42:15;101347.60;;;1.10
68588;BMP180;55560;52.174;20.996;2024-03-08T01:44:45;101346.20;;;1.00
68588;BMP180;55560;52.174;20.996;2024-03-08T01:47:13;101342.40;;;1.00
68588;BMP180;55560;52.174;20.996;2024-03-08T01:49:40;101344.60;;;1.00
68588;BMP180;55560;52.174;20.996;2024-03-08T01:52:08;101345.00;;;0.90
68588;BMP180;55560;52.174;20.996;2024-03-08T01:54:36;101344.40;;;0.90
68588;BMP180;55560;52.174;20.996;2024-03-08T01:57:04;101344.00;;;0.80
68588;BMP180;55560;52.174;20.996;2024-03-08T01:59:32;101339.20;;;0.80
68588;BMP180;55560;52.174;20.996;2024-03-08T02:02:01;101339.60;;;0.78
68588;BMP180;55560;52.174;20.996;2024-03-08T02:04:30;101336.40;;;0.70
68588;BMP180;55560;52.174;20.996;2024-03-08T02:06:58;101330.80;;;0.70
68588;BMP180;55560;52.174;20.996;2024-03-08T02:09:26;101334.20;;;0.70
68588;BMP180;55560;52.174;20.996;2024-03-08T02:11:54;101329.40;;;0.66
68588;BMP180;55560;52.174;20.996;2024-03-08T02:14:23;101328.60;;;0.62
68588;BMP180;55560;52.174;20.996;2024-03-08T02:16:51;101329.00;;;0.60
68588;BMP180;55560;52.174;20.996;2024-03-08T02:19:19;101323.00;;;0.60
68588;BMP180;55560;52.174;20.996;2024-03-08T02:21:47;101323.60;;;0.60
68588;BMP180;55560;52.174;20.996;2024-03-08T02:24:15;101316.60;;;0.60
68588;BMP180;55560;52.174;20.996;2024-03-08T02:26:44;101312.40;;;0.60
68588;BMP180;55560;52.174;20.996;2024-03-08T02:29:11;101315.80;;;0.60
68588;BMP180;55560;52.174;20.996;2024-03-08T02:31:40;101318.20;;;0.58
68588;BMP180;55560;52.174;20.996;2024-03-08T02:34:07;101319.00;;;0.60
68588;BMP180;55560;52.174;20.996;2024-03-08T02:36:37;101317.80;;;0.60
68588;BMP180;55560;52.174;20.996;2024-03-08T02:39:04;101312.20;;;0.60
68588;BMP180;55560;52.174;20.996;2024-03-08T02:41:36;101311.40;;;0.62
68588;BMP180;55560;52.174;20.996;2024-03-08T02:44:04;101311.40;;;0.60
68588;BMP180;55560;52.174;20.996;2024-03-08T02:46:31;101314.00;;;0.60
68588;BMP180;55560;52.174;20.996;2024-03-08T02:48:59;101313.80;;;0.60
68588;BMP180;55560;52.174;20.996;2024-03-08T02:51:28;101314.40;;;0.58
68588;BMP180;55560;52.174;20.996;2024-03-08T02:53:56;101310.40;;;0.54
68588;BMP180;55560;52.174;20.996;2024-03-08T02:56:25;101312.60;;;0.50
68588;BMP180;55560;52.174;20.996;2024-03-08T02:58:54;101312.20;;;0.40
68588;BMP180;55560;52.174;20.996;2024-03-08T03:01:21;101309.20;;;0.40
68588;BMP180;55560;52.174;20.996;2024-03-08T03:03:50;101308.00;;;0.40
68588;BMP180;55560;52.174;20.996;2024-03-08T03:06:18;101306.80;;;0.40
68588;BMP180;55560;52.174;20.996;2024-03-08T03:08:48;101304.20;;;0.32
68588;BMP180;55560;52.174;20.996;2024-03-08T03:11:16;101304.40;;;0.30
68588;BMP180;55560;52.174;20.996;2024-03-08T03:13:44;101303.60;;;0.30
68588;BMP180;55560;52.174;20.996;2024-03-08T03:16:19;101306.40;;;0.20
68588;BMP180;55560;52.174;20.996;2024-03-08T03:18:50;101305.20;;;0.20
68588;BMP180;55560;52.174;20.996;2024-03-08T03:21:18;101305.40;;;0.10
68588;BMP180;55560;52.174;20.996;2024-03-08T03:23:45;101304.80;;;0.10
68588;BMP180;55560;52.174;20.996;2024-03-08T03:26:13;101307.80;;;0.10
68588;BMP180;55560;52.174;20.996;2024-03-08T03:28:45;101306.60;;;0.00
68588;BMP180;55560;52.174;20.996;2024-03-08T03:31:12;101308.00;;;0.02
68588;BMP180;55560;52.174;20.996;2024-03-08T03:33:42;101306.80;;;0.00
68588;BMP180;55560;52.174;20.996;2024-03-08T03:36:11;101301.80;;;0.00
68588;BMP180;55560;52.174;20.996;2024-03-08T03:38:39;101304.00;;;0.00
68588;BMP180;55560;52.174;20.996;2024-03-08T03:41:07;101302.00;;;0.00
68588;BMP180;55560;52.174;20.996;2024-03-08T03:43:38;101304.60;;;-0.06
68588;BMP180;55560;52.174;20.996;2024-03-08T03:46:07;101303.60;;;-0.10
68588;BMP180;55560;52.174;20.996;2024-03-08T03:48:35;101300.80;;;-0.10
68588;BMP180;55560;52.174;20.996;2024-03-08T03:51:03;101300.60;;;-0.10
68588;BMP180;55560;52.174;20.996;2024-03-08T03:53:31;101300.40;;;-0.10
68588;BMP180;55560;52.174;20.996;2024-03-08T03:55:59;101298.80;;;-0.16
68588;BMP180;55560;52.174;20.996;2024-03-08T03:58:27;101298.00;;;-0.20
68588;BMP180;55560;52.174;20.996;2024-03-08T04:00:55;101288.80;;;-0.20
68588;BMP180;55560;52.174;20.996;2024-03-08T04:03:22;101289.40;;;-0.20
68588;BMP180;55560;52.174;20.996;2024-03-08T04:05:50;101287.00;;;-0.20
68588;BMP180;55560;52.174;20.996;2024-03-08T04:08:18;101287.20;;;-0.20
68588;BMP180;55560;52.174;20.996;2024-03-08T04:10:46;101292.00;;;-0.20
68588;BMP180;55560;52.174;20.996;2024-03-08T04:13:14;101288.60;;;-0.28
68588;BMP180;55560;52.174;20.996;2024-03-08T04:15:43;101283.60;;;-0.30
68588;BMP180;55560;52.174;20.996;2024-03-08T04:18:16;101280.60;;;-0.30
68588;BMP180;55560;52.174;20.996;2024-03-08T04:20:44;101278.60;;;-0.34
68588;BMP180;55560;52.174;20.996;2024-03-08T04:23:12;101282.00;;;-0.38
68588;BMP180;55560;52.174;20.996;2024-03-08T04:25:39;101282.40;;;-0.40
68588;BMP180;55560;52.174;20.996;2024-03-08T04:28:09;101278.80;;;-0.40
68588;BMP180;55560;52.174;20.996;2024-03-08T04:30:40;101279.40;;;-0.40
68588;BMP180;55560;52.174;20.996;2024-03-08T04:33:08;101284.80;;;-0.42
68588;BMP180;55560;52.174;20.996;2024-03-08T04:35:36;101286.60;;;-0.48
68588;BMP180;55560;52.174;20.996;2024-03-08T04:38:04;101282.80;;;-0.50
68588;BMP180;55560;52.174;20.996;2024-03-08T04:40:33;101277.60;;;-0.50
68588;BMP180;55560;52.174;20.996;2024-03-08T04:43:01;101279.00;;;-0.50
68588;BMP180;55560;52.174;20.996;2024-03-08T04:45:29;101276.60;;;-0.54
68588;BMP180;55560;52.174;20.996;2024-03-08T04:47:57;101279.40;;;-0.58
68588;BMP180;55560;52.174;20.996;2024-03-08T04:50:25;101279.00;;;-0.60
68588;BMP180;55560;52.174;20.996;2024-03-08T04:52:57;101278.80;;;-0.60
68588;BMP180;55560;52.174;20.996;2024-03-08T04:55:24;101280.80;;;-0.60
68588;BMP180;55560;52.174;20.996;2024-03-08T04:57:52;101273.80;;;-0.64
68588;BMP180;55560;52.174;20.996;2024-03-08T05:00:20;101280.80;;;-0.68
68588;BMP180;55560;52.174;20.996;2024-03-08T05:02:48;101277.40;;;-0.70
68588;BMP180;55560;52.174;20.996;2024-03-08T05:05:16;101279.40;;;-0.70
68588;BMP180;55560;52.174;20.996;2024-03-08T05:07:44;101287.60;;;-0.70
68588;BMP180;55560;52.174;20.996;2024-03-08T05:10:13;101287.20;;;-0.80
68588;BMP180;55560;52.174;20.996;2024-03-08T05:12:44;101286.40;;;-0.80
68588;BMP180;55560;52.174;20.996;2024-03-08T05:15:12;101288.80;;;-0.80
68588;BMP180;55560;52.174;20.996;2024-03-08T05:17:40;101285.00;;;-0.80
68588;BMP180;55560;52.174;20.996;2024-03-08T05:20:09;101286.00;;;-0.80
68588;BMP180;55560;52.174;20.996;2024-03-08T05:22:40;101287.80;;;-0.80
68588;BMP180;55560;52.174;20.996;2024-03-08T05:25:08;101285.40;;;-0.80
68588;BMP180;55560;52.174;20.996;2024-03-08T05:27:36;101282.40;;;-0.80
68588;BMP180;55560;52.174;20.996;2024-03-08T05:30:04;101278.80;;;-0.80
68588;BMP180;55560;52.174;20.996;2024-03-08T05:32:32;101282.60;;;-0.80
68588;BMP180;55560;52.174;20.996;2024-03-08T05:35:00;101283.20;;;-0.80
68588;BMP180;55560;52.174;20.996;2024-03-08T05:37:28;101285.80;;;-0.80
68588;BMP180;55560;52.174;20.996;2024-03-08T05:39:55;101284.00;;;-0.78
68588;BMP180;55560;52.174;20.996;2024-03-08T05:42:23;101283.20;;;-0.72
68588;BMP180;55560;52.174;20.996;2024-03-08T05:44:51;101279.60;;;-0.70
68588;BMP180;55560;52.174;20.996;2024-03-08T05:47:19;101281.60;;;-0.70
68588;BMP180;55560;52.174;20.996;2024-03-08T05:49:47;101279.20;;;-0.60
68588;BMP180;55560;52.174;20.996;2024-03-08T05:52:14;101275.00;;;-0.60
68588;BMP180;55560;52.174;20.996;2024-03-08T05:54:43;101279.80;;;-0.60
68588;BMP180;55560;52.174;20.996;2024-03-08T05:57:11;101278.60;;;-0.50
68588;BMP180;55560;52.174;20.996;2024-03-08T05:59:39;101277.80;;;-0.50
68588;BMP180;55560;52.174;20.996;2024-03-08T06:02:07;101276.80;;;-0.48
68588;BMP180;55560;52.174;20.996;2024-03-08T06:04:35;101276.60;;;-0.40
68588;BMP180;55560;52.174;20.996;2024-03-08T06:07:03;101275.20;;;-0.38
68588;BMP180;55560;52.174;20.996;2024-03-08T06:09:30;101280.60;;;-0.30
68588;BMP180;55560;52.174;20.996;2024-03-08T06:11:58;101283.40;;;-0.20
68588;BMP180;55560;52.174;20.996;2024-03-08T06:14:26;101286.00;;;-0.10
68588;BMP180;55560;52.174;20.996;2024-03-08T06:16:54;101283.20;;;-0.10
68588;BMP180;55560;52.174;20.996;2024-03-08T06:19:22;101283.00;;;0.00
68588;BMP180;55560;52.174;20.996;2024-03-08T06:21:50;101283.80;;;0.00
68588;BMP180;55560;52.174;20.996;2024-03-08T06:24:17;101284.20;;;0.10
68588;BMP180;55560;52.174;20.996;2024-03-08T06:26:46;101288.40;;;0.20
68588;BMP180;55560;52.174;20.996;2024-03-08T06:29:13;101287.20;;;0.30
68588;BMP180;55560;52.174;20.996;2024-03-08T06:31:43;101289.00;;;0.30
68588;BMP180;55560;52.174;20.996;2024-03-08T06:34:10;101287.60;;;0.40
68588;BMP180;55560;52.174;20.996;2024-03-08T06:36:39;101291.00;;;0.50
68588;BMP180;55560;52.174;20.996;2024-03-08T06:39:07;101286.40;;;0.54
68588;BMP180;55560;52.174;20.996;2024-03-08T06:41:38;101289.80;;;0.60
68588;BMP180;55560;52.174;20.996;2024-03-08T06:44:06;101281.60;;;0.70
68588;BMP180;55560;52.174;20.996;2024-03-08T06:46:35;101285.40;;;0.78
68588;BMP180;55560;52.174;20.996;2024-03-08T06:49:03;101290.40;;;0.80
68588;BMP180;55560;52.174;20.996;2024-03-08T06:51:31;101292.80;;;0.90
68588;BMP180;55560;52.174;20.996;2024-03-08T06:54:00;101292.60;;;1.00
68588;BMP180;55560;52.174;20.996;2024-03-08T06:56:28;101289.00;;;1.08
68588;BMP180;55560;52.174;20.996;2024-03-08T06:58:57;101292.00;;;1.16
68588;BMP180;55560;52.174;20.996;2024-03-08T07:01:25;101289.80;;;1.22
68588;BMP180;55560;52.174;20.996;2024-03-08T07:03:53;101288.80;;;1.30
68588;BMP180;55560;52.174;20.996;2024-03-08T07:06:21;101288.60;;;1.40
68588;BMP180;55560;52.174;20.996;2024-03-08T07:08:49;101288.60;;;1.50
68588;BMP180;55560;52.174;20.996;2024-03-08T07:11:16;101285.60;;;1.60
68588;BMP180;55560;52.174;20.996;2024-03-08T07:13:46;101286.20;;;1.70
68588;BMP180;55560;52.174;20.996;2024-03-08T07:17:21;101282.40;;;1.86
68588;BMP180;55560;52.174;20.996;2024-03-08T07:19:50;101281.60;;;1.90
68588;BMP180;55560;52.174;20.996;2024-03-08T07:22:18;101281.20;;;2.00
68588;BMP180;55560;52.174;20.996;2024-03-08T07:24:46;101283.20;;;2.10
68588;BMP180;55560;52.174;20.996;2024-03-08T07:27:33;101273.20;;;2.20
68588;BMP180;55560;52.174;20.996;2024-03-08T07:30:05;101272.40;;;2.30
68588;BMP180;55560;52.174;20.996;2024-03-08T07:32:35;101274.80;;;2.38
68588;BMP180;55560;52.174;20.996;2024-03-08T07:35:05;101277.00;;;2.42
68588;BMP180;55560;52.174;20.996;2024-03-08T07:37:33;101278.00;;;2.56
68588;BMP180;55560;52.174;20.996;2024-03-08T07:40:01;101276.60;;;2.68
68588;BMP180;55560;52.174;20.996;2024-03-08T07:42:29;101273.00;;;2.80
68588;BMP180;55560;52.174;20.996;2024-03-08T07:44:57;101276.20;;;2.90
68588;BMP180;55560;52.174;20.996;2024-03-08T07:47:28;101273.40;;;3.00
68588;BMP180;55560;52.174;20.996;2024-03-08T07:49:58;101271.80;;;3.12
68588;BMP180;55560;52.174;20.996;2024-03-08T07:52:31;101269.60;;;4.00
68588;BMP180;55560;52.174;20.996;2024-03-08T07:55:00;101265.00;;;4.74
68588;BMP180;55560;52.174;20.996;2024-03-08T07:57:27;101270.40;;;5.64
68588;BMP180;55560;52.174;20.996;2024-03-08T07:59:58;101259.80;;;6.72
68588;BMP180;55560;52.174;20.996;2024-03-08T08:02:26;101260.40;;;7.60
68588;BMP180;55560;52.174;20.996;2024-03-08T08:04:54;101261.40;;;7.82
68588;BMP180;55560;52.174;20.996;2024-03-08T08:07:23;101260.00;;;8.10
68588;BMP180;55560;52.174;20.996;2024-03-08T08:09:52;101262.00;;;8.10
68588;BMP180;55560;52.174;20.996;2024-03-08T08:12:21;101259.60;;;7.88
68588;BMP180;55560;52.174;20.996;2024-03-08T08:14:49;101258.20;;;7.60
68588;BMP180;55560;52.174;20.996;2024-03-08T08:17:18;101260.60;;;7.40
68588;BMP180;55560;52.174;20.996;2024-03-08T08:19:46;101256.60;;;7.30
68588;BMP180;55560;52.174;20.996;2024-03-08T08:22:14;101255.80;;;7.30
68588;BMP180;55560;52.174;20.996;2024-03-08T08:24:42;101252.00;;;7.68
68588;BMP180;55560;52.174;20.996;2024-03-08T08:27:10;101249.00;;;8.50
68588;BMP180;55560;52.174;20.996;2024-03-08T08:29:39;101250.20;;;9.12
68588;BMP180;55560;52.174;20.996;2024-03-08T08:32:08;101247.60;;;9.80
68588;BMP180;55560;52.174;20.996;2024-03-08T08:34:35;101249.40;;;10.68
68588;BMP180;55560;52.174;20.996;2024-03-08T08:37:04;101242.00;;;11.50
68588;BMP180;55560;52.174;20.996;2024-03-08T08:39:31;101244.80;;;11.90
68588;BMP180;55560;52.174;20.996;2024-03-08T08:42:00;101243.40;;;12.00
68588;BMP180;55560;52.174;20.996;2024-03-08T08:44:28;101237.40;;;12.20
68588;BMP180;55560;52.174;20.996;2024-03-08T08:46:57;101240.80;;;13.22
68588;BMP180;55560;52.174;20.996;2024-03-08T08:49:39;101242.20;;;13.68
68588;BMP180;55560;52.174;20.996;2024-03-08T08:52:07;101241.20;;;13.20
68588;BMP180;55560;52.174;20.996;2024-03-08T08:54:43;101236.60;;;12.48
68588;BMP180;55560;52.174;20.996;2024-03-08T08:57:17;101234.40;;;11.90
68588;BMP180;55560;52.174;20.996;2024-03-08T08:59:45;101234.00;;;11.50
68588;BMP180;55560;52.174;20.996;2024-03-08T09:02:13;101235.80;;;10.90
68588;BMP180;55560;52.174;20.996;2024-03-08T09:04:45;101227.60;;;10.50
68588;BMP180;55560;52.174;20.996;2024-03-08T09:07:13;101229.60;;;10.30
68588;BMP180;55560;52.174;20.996;2024-03-08T09:09:42;101229.00;;;10.10
68588;BMP180;55560;52.174;20.996;2024-03-08T09:12:11;101229.60;;;9.90
68588;BMP180;55560;52.174;20.996;2024-03-08T09:14:41;101230.40;;;9.60
68588;BMP180;55560;52.174;20.996;2024-03-08T09:17:09;101227.40;;;9.40
68588;BMP180;55560;52.174;20.996;2024-03-08T09:19:37;101222.40;;;9.20
68588;BMP180;55560;52.174;20.996;2024-03-08T09:22:06;101222.00;;;9.04
68588;BMP180;55560;52.174;20.996;2024-03-08T09:24:34;101217.20;;;8.90
68588;BMP180;55560;52.174;20.996;2024-03-08T09:27:02;101214.00;;;8.72
68588;BMP180;55560;52.174;20.996;2024-03-08T09:29:31;101211.00;;;8.60
68588;BMP180;55560;52.174;20.996;2024-03-08T09:31:58;101213.80;;;8.50
68588;BMP180;55560;52.174;20.996;2024-03-08T09:34:26;101210.40;;;8.42
68588;BMP180;55560;52.174;20.996;2024-03-08T09:37:04;101206.20;;;8.40
68588;BMP180;55560;52.174;20.996;2024-03-08T09:39:33;101206.60;;;8.40
68588;BMP180;55560;52.174;20.996;2024-03-08T09:42:01;101202.40;;;8.32
68588;BMP180;55560;52.174;20.996;2024-03-08T09:44:30;101205.00;;;8.30
68588;BMP180;55560;52.174;20.996;2024-03-08T09:46:58;101208.20;;;8.20
68588;BMP180;55560;52.174;20.996;2024-03-08T09:49:27;101206.80;;;8.20
68588;BMP180;55560;52.174;20.996;2024-03-08T09:51:57;101208.20;;;8.10
68588;BMP180;55560;52.174;20.996;2024-03-08T09:54:26;101202.60;;;8.10
68588;BMP180;55560;52.174;20.996;2024-03-08T09:56:54;101200.00;;;8.04
68588;BMP180;55560;52.174;20.996;2024-03-08T09:59:22;101204.00;;;8.00
68588;BMP180;55560;52.174;20.996;2024-03-08T10:01:51;101203.80;;;8.10
68588;BMP180;55560;52.174;20.996;2024-03-08T10:04:24;101199.20;;;8.00
68588;BMP180;55560;52.174;20.996;2024-03-08T10:06:53;101203.80;;;8.00
68588;BMP180;55560;52.174;20.996;2024-03-08T10:09:22;101205.20;;;8.00
68588;BMP180;55560;52.174;20.996;2024-03-08T10:11:57;101200.20;;;8.00
68588;BMP180;55560;52.174;20.996;2024-03-08T10:14:26;101201.80;;;8.00
68588;BMP180;55560;52.174;20.996;2024-03-08T10:16:59;101195.60;;;8.00
68588;BMP180;55560;52.174;20.996;2024-03-08T10:19:28;101196.80;;;8.00
68588;BMP180;55560;52.174;20.996;2024-03-08T10:21:58;101194.40;;;8.10
68588;BMP180;55560;52.174;20.996;2024-03-08T10:24:27;101197.00;;;8.10
68588;BMP180;55560;52.174;20.996;2024-03-08T10:27:01;101191.20;;;8.10
68588;BMP180;55560;52.174;20.996;2024-03-08T10:29:33;101188.60;;;8.10
68588;BMP180;55560;52.174;20.996;2024-03-08T10:32:02;101193.20;;;8.18
68588;BMP180;55560;52.174;20.996;2024-03-08T10:34:30;101191.00;;;8.20
68588;BMP180;55560;52.174;20.996;2024-03-08T10:37:03;101183.80;;;8.20
68588;BMP180;55560;52.174;20.996;2024-03-08T10:39:36;101182.60;;;8.20
68588;BMP180;55560;52.174;20.996;2024-03-08T10:42:05;101180.20;;;8.30
68588;BMP180;55560;52.174;20.996;2024-03-08T10:44:53;101185.40;;;8.30
68588;BMP180;55560;52.174;20.996;2024-03-08T10:47:30;101181.20;;;8.30
68588;BMP180;55560;52.174;20.996;2024-03-08T10:50:19;101170.80;;;8.38
68588;BMP180;55560;52.174;20.996;2024-03-08T10:52:52;101169.60;;;8.40
68588;BMP180;55560;52.174;20.996;2024-03-08T10:55:20;101167.60;;;8.40
68588;BMP180;55560;52.174;20.996;2024-03-08T10:57:49;101166.60;;;8.40
68588;BMP180;55560;52.174;20.996;2024-03-08T11:00:17;101169.00;;;8.40
68588;BMP180;55560;52.174;20.996;2024-03-08T11:02:46;101170.20;;;8.40
68588;BMP180;55560;52.174;20.996;2024-03-08T11:05:39;101168.80;;;8.40
68588;BMP180;55560;52.174;20.996;2024-03-08T11:08:18;101164.40;;;8.50
68588;BMP180;55560;52.174;20.996;2024-03-08T11:10:51;101163.40;;;8.50
68588;BMP180;55560;52.174;20.996;2024-03-08T11:13:43;101164.80;;;8.50
68588;BMP180;55560;52.174;20.996;2024-03-08T11:21:57;101161.20;;;8.60
68588;BMP180;55560;52.174;20.996;2024-03-08T11:24:25;101153.60;;;8.60
68588;BMP180;55560;52.174;20.996;2024-03-08T11:26:57;101152.40;;;8.64
68588;BMP180;55560;52.174;20.996;2024-03-08T11:32:16;101145.00;;;8.70
68588;BMP180;55560;52.174;20.996;2024-03-08T11:34:50;101141.20;;;8.70
68588;BMP180;55560;52.174;20.996;2024-03-08T11:37:20;101137.00;;;8.80
68588;BMP180;55560;52.174;20.996;2024-03-08T11:39:54;101131.00;;;8.80
68588;BMP180;55560;52.174;20.996;2024-03-08T11:42:27;101129.40;;;8.80
68588;BMP180;55560;52.174;20.996;2024-03-08T11:44:55;101127.40;;;8.90
68588;BMP180;55560;52.174;20.996;2024-03-08T11:47:24;101126.60;;;8.90
68588;BMP180;55560;52.174;20.996;2024-03-08T11:49:54;101124.60;;;8.90
68588;BMP180;55560;52.174;20.996;2024-03-08T11:52:22;101121.80;;;8.90
68588;BMP180;55560;52.174;20.996;2024-03-08T11:54:54;101124.40;;;8.90
68588;BMP180;55560;52.174;20.996;2024-03-08T11:57:26;101114.20;;;8.90
68588;BMP180;55560;52.174;20.996;2024-03-08T11:59:56;101116.20;;;8.90
68588;BMP180;55560;52.174;20.996;2024-03-08T12:02:25;101115.00;;;8.96
68588;BMP180;55560;52.174;20.996;2024-03-08T12:04:58;101110.80;;;9.00
68588;BMP180;55560;52.174;20.996;2024-03-08T12:07:32;101107.40;;;9.00
68588;BMP180;55560;52.174;20.996;2024-03-08T12:10:22;101107.20;;;9.00
68588;BMP180;55560;52.174;20.996;2024-03-08T12:12:53;101107.60;;;9.10
68588;BMP180;55560;52.174;20.996;2024-03-08T12:15:23;101106.00;;;9.10
68588;BMP180;55560;52.174;20.996;2024-03-08T12:17:54;101098.60;;;9.20
68588;BMP180;55560;52.174;20.996;2024-03-08T12:20:25;101099.80;;;9.30
68588;BMP180;55560;52.174;20.996;2024-03-08T12:22:54;101094.80;;;9.36
68588;BMP180;55560;52.174;20.996;2024-03-08T12:25:31;101096.60;;;9.40
68588;BMP180;55560;52.174;20.996;2024-03-08T12:28:11;101094.60;;;9.50
68588;BMP180;55560;52.174;20.996;2024-03-08T12:30:49;101096.60;;;9.70
68588;BMP180;55560;52.174;20.996;2024-03-08T12:33:19;101091.00;;;9.80
68588;BMP180;55560;52.174;20.996;2024-03-08T12:35:51;101085.80;;;9.90
68588;BMP180;55560;52.174;20.996;2024-03-08T12:38:22;101085.20;;;9.90
68588;BMP180;55560;52.174;20.996;2024-03-08T12:41:01;101079.00;;;10.00
68588;BMP180;55560;52.174;20.996;2024-03-08T12:43:30;101076.60;;;10.20
68588;BMP180;55560;52.174;20.996;2024-03-08T12:45:59;101073.80;;;10.30
68588;BMP180;55560;52.174;20.996;2024-03-08T12:48:28;101070.40;;;10.50
68588;BMP180;55560;52.174;20.996;2024-03-08T12:50:56;101062.60;;;10.60
68588;BMP180;55560;52.174;20.996;2024-03-08T12:53:24;101063.20;;;10.78
68588;BMP180;55560;52.174;20.996;2024-03-08T12:55:56;101058.60;;;10.90
68588;BMP180;55560;52.174;20.996;2024-03-08T12:58:25;101055.40;;;10.90
68588;BMP180;55560;52.174;20.996;2024-03-08T13:00:53;101051.40;;;10.90
68588;BMP180;55560;52.174;20.996;2024-03-08T13:03:22;101053.40;;;10.94
68588;BMP180;55560;52.174;20.996;2024-03-08T13:05:51;101048.40;;;11.10
68588;BMP180;55560;52.174;20.996;2024-03-08T13:08:19;101047.20;;;11.20
68588;BMP180;55560;52.174;20.996;2024-03-08T13:10:48;101046.80;;;11.30
68588;BMP180;55560;52.174;20.996;2024-03-08T13:13:16;101046.00;;;11.50
68588;BMP180;55560;52.174;20.996;2024-03-08T13:15:45;101041.80;;;11.60
68588;BMP180;55560;52.174;20.996;2024-03-08T13:18:13;101038.80;;;11.72
68588;BMP180;55560;52.174;20.996;2024-03-08T13:20:43;101034.80;;;11.94
68588;BMP180;55560;52.174;20.996;2024-03-08T13:23:18;101029.40;;;12.20
68588;BMP180;55560;52.174;20.996;2024-03-08T13:25:46;101030.40;;;12.40
68588;BMP180;55560;52.174;20.996;2024-03-08T13:28:17;101023.20;;;12.60
68588;BMP180;55560;52.174;20.996;2024-03-08T13:30:51;101018.80;;;12.74
68588;BMP180;55560;52.174;20.996;2024-03-08T13:33:24;101010.40;;;12.90
68588;BMP180;55560;52.174;20.996;2024-03-08T13:35:52;101013.00;;;13.10
68588;BMP180;55560;52.174;20.996;2024-03-08T13:38:20;101007.00;;;13.30
68588;BMP180;55560;52.174;20.996;2024-03-08T13:40:48;101016.40;;;13.60
68588;BMP180;55560;52.174;20.996;2024-03-08T13:43:17;101010.60;;;13.80
68588;BMP180;55560;52.174;20.996;2024-03-08T13:45:46;101006.40;;;14.00
68588;BMP180;55560;52.174;20.996;2024-03-08T13:48:14;101008.60;;;14.10
68588;BMP180;55560;52.174;20.996;2024-03-08T13:50:43;100999.00;;;14.12
68588;BMP180;55560;52.174;20.996;2024-03-08T13:53:12;100997.40;;;14.20
68588;BMP180;55560;52.174;20.996;2024-03-08T13:55:41;100996.00;;;14.40
68588;BMP180;55560;52.174;20.996;2024-03-08T13:58:09;100996.20;;;14.52
68588;BMP180;55560;52.174;20.996;2024-03-08T14:00:37;100997.00;;;14.70
68588;BMP180;55560;52.174;20.996;2024-03-08T14:03:06;100994.40;;;14.70
68588;BMP180;55560;52.174;20.996;2024-03-08T14:05:34;100995.40;;;14.70
68588;BMP180;55560;52.174;20.996;2024-03-08T14:08:03;100993.40;;;14.60
68588;BMP180;55560;52.174;20.996;2024-03-08T14:10:31;100992.80;;;14.62
68588;BMP180;55560;52.174;20.996;2024-03-08T14:13:00;100990.40;;;14.70